Terminal Aerodrome Forecast
Issued by NWS

Home | Current Version | Previous Version | Text Only | Print | Product List | Glossary On
Versions: 1 2 3 4 5 6 7 8 9 10 11 12 13 14 15 16 17 18 19 20 21
000
FTUS43 KGRB 231100
TAFAUW
TAF
KAUW 231135Z 2312/2412 17007KT 1/4SM -DZ FG VV002
      TEMPO 2312/2316 1/2SM FG OVC003
     FM231600 16007KT 3/4SM -RA BR OVC002
     FM232200 14005KT 1SM -RA BR OVC003
     FM240600 32007KT 2SM -RA BR OVC004=

USA.gov is the U.S. government's official web portal to all federal, state and local government web resources and services.